kpfu.ru alexa rank chart, kpfu.ru alexa rank daily changes

kpfu.ru alexa rank chart, kpfu.ru alexa rank daily changes

kpfu.ru
Actual rank:
21 232

RANK HISTORY

Date Rank Diff
2018/04/20 21 232 +7 863
2018/04/19 13 369 -4 056
2018/04/18 17 425 -399
2018/04/17 17 824 -11 830
2018/04/16 29 654 +7 706
2018/04/15 21 948 +1 442
2018/04/14 20 506 +3 991
2018/04/13 16 515 -6 395
2018/04/12 22 910 +2 868
2018/04/11 20 042 -3 429
2018/04/10 23 471 -231
2018/04/09 23 702 +1 412
2018/04/08 22 290 +1 642
2018/04/07 20 648 +1 699
2018/04/06 18 949 +545
2018/04/05 18 404 -2 693
2018/04/04 21 097 +843
2018/04/03 20 254 -2 551
2018/04/02 22 805 +1 154
2018/04/01 21 651 -339
2018/03/31 21 990 +110
2018/03/30 21 880 +1 541
2018/03/29 20 339 -469
2018/03/28 20 808 -2 947
2018/03/27 23 755 -6 343
2018/03/26 30 098 -782
2018/03/25 30 880 +8 810
2018/03/24 22 070 +853
2018/03/23 21 217 -1 458
2018/03/22 22 675 +826
2018/03/21 21 849 -5 412
2018/03/20 27 261 +818
2018/03/19 26 443 +3 167
2018/03/18 23 276 -2 045
2018/03/17 25 321 +4 743
2018/03/16 20 578 -4 243
2018/03/15 24 821 +1 697
2018/03/14 23 124 -2 424
2018/03/13 25 548 -2 746
2018/03/12 28 294 -5 095
2018/03/11 33 389 -6 530
2018/03/10 39 919 +3 307
2018/03/09 36 612 +10 706
2018/03/08 25 906 +3 074
2018/03/07 22 832 -110
2018/03/06 22 942 -3 728
2018/03/05 26 670 +1 884
2018/03/04 24 786 +553
2018/03/03 24 233 +1 712
2018/03/02 22 521 +3 338
2018/03/01 19 183 -5 318
2018/02/28 24 501 +810
2018/02/27 23 691 -6 713
2018/02/26 30 404 +413
2018/02/25 29 991 +1 512
2018/02/24 28 479 +3 902
2018/02/23 24 577 -653
2018/02/22 25 230 +264
2018/02/21 24 966 +1 607
2018/02/20 23 359 -9 454
2018/02/19 32 813

WIDGET FOR YOUR SITE

DOMAINS WITH THE NEAREST RANK

Domain Rank
sparkpool.com 21 227
truestory.click 21 228
download-soundtracks.com 21 229
humankinetics.com 21 230
pixa.club 21 231
kpfu.ru 21 232
bankwest.com.au 21 233
bitbank.cc 21 234
destinytracker.com 21 235
ankara.edu.tr 21 236
nationalcar.com 21 237

DOMAINS WITH THE NEAREST RANK BY TLD .ru

Domain Rank
sfu-kras.ru 20 968
findpatent.ru 20 978
rjjaca.ru 21 047
ntvplus.ru 21 125
infox.ru 21 198
kpfu.ru 21 232
gamer-mods.ru 21 290
foto.ru 21 292
gtavicecity.ru 21 314
meteonova.ru 21 322
borda.ru 21 326